SSEC Globe Logo

Space Science and Engineering Center

Regional Terminal Forecasts

KMSN 122114Z 1221/1318 32010KT P6SM BKN080 FM130200 27005KT
     P6SM SCT030 BKN050 FM130800 16006KT P6SM BKN025 OVC040
     FM131200 15010KT P6SM OVC035 FM131500 14009KT 3SM
     -FZDZSN BKN025 OVC050=
KMKE 122111Z 1221/1324 31011G18KT P6SM SCT035 SCT100
     FM130500 28008KT P6SM BKN050 FM130900 19004KT P6SM
     SCT030 BKN040 FM131200 17007KT 5SM -SN OVC025 FM131400
     17007KT 1 1/2SM -SN BKN020 FM131500 16008KT 3/4SM -SN
     BKN008 FM132100 07007KT 2SM -SN OVC020=
KGRB 121735Z 1218/1318 34012G17KT P6SM BKN035 TEMPO
     1218/1220 SCT035 FM122000 31009G14KT P6SM SCT025 SCT100
     FM130200 VRB03KT P6SM BKN090 FM130900 15004KT P6SM -SN
     SCT015 BKN050 FM131200 11007KT 1 1/2SM -SN BKN015
     FM131600 09010KT 1/2SM SN VV002=
KAUW 121735Z 1218/1318 33010KT P6SM FEW020 SCT100 FM122100
     31007KT P6SM BKN100 FM130000 VRB03KT P6SM OVC070
     FM130600 VRB03KT P6SM -SN SCT015 BKN050 FM130900
     11007KT 1 1/2SM -SN BKN015 FM131300 09010KT 1SM -SN
     VV004=
KEAU 122321Z 1300/1324 23005KT P6SM VCSH BKN025 OVC050
     FM130200 16004KT P6SM VCSH OVC025 FM130400 15005KT P6SM
     BKN025 FM130700 14006KT P6SM BKN060 FM131000 13006KT
     P6SM VCSH OVC050 FM131200 13005KT 4SM -SN OVC015
     FM131500 06005KT 3SM -FZDZSN OVC008 FM131800 34009KT
     4SM -SN OVC015=
KLSE 121720Z 1218/1318 32006KT P6SM SCT080 FM130100 16005KT
     P6SM BKN035 FM130500 16006KT P6SM SCT040 FM131330
     20006KT P6SM BKN030 FM131530 33012G21KT P6SM VCSH
     BKN020=
KDBQ 121720Z 1218/1318 32013KT P6SM SKC FM122200 29010KT
     P6SM SCT130 FM130100 24006KT P6SM OVC060 FM130500
     18006KT P6SM SCT200 FM131500 22014KT P6SM VCSH BKN070=
TAF TAF AMD KRFD 122059Z 1221/1318 29008KT P6SM BKN100
     FM130400 25006KT P6SM OVC060 FM130800 16008KT P6SM
     BKN050 FM131100 16010KT P6SM BKN060 FM131600 23012G18KT
     P6SM SCT030 OVC050=
KORD 122059Z 1221/1324 29012KT P6SM FEW035 FEW250 FM130700
     20006KT P6SM SCT045 OVC060 FM131100 17010KT P6SM SCT030
     OVC040 TEMPO 1312/1316 2SM -SN SCT020 OVC030 FM131600
     21012G18KT P6SM SCT030 OVC060 FM131800 23013G19KT 6SM
     -SN OVC025 TEMPO 1319/1321 1 1/2SM -SHSN SCT015 OVC020
     FM132100 30014G24KT P6SM OVC018=